createdAt,value
2022-10-01T00:00:17.369Z,71.81
2022-10-01T00:05:21.763Z,71.33
2022-10-01T00:10:25.694Z,71.05
2022-10-01T00:15:31.054Z,70.95
2022-10-01T00:20:35.321Z,70.96
2022-10-01T00:25:40.017Z,70.89
2022-10-01T00:30:49.310Z,70.30
2022-10-01T00:35:54.985Z,72.34
2022-10-01T00:40:59.414Z,72.36
2022-10-01T00:46:10.911Z,72.14
2022-10-01T00:51:15.229Z,72.11
2022-10-01T00:56:19.731Z,74.54
2022-10-01T01:01:25.471Z,72.96
2022-10-01T01:06:30.477Z,75.07
2022-10-01T01:11:45.821Z,74.86
2022-10-01T01:16:55.095Z,74.30
2022-10-01T01:22:03.293Z,72.77
2022-10-01T01:27:24.574Z,72.77
2022-10-01T01:32:35.651Z,72.27
2022-10-01T01:37:46.713Z,71.43
2022-10-01T01:42:52.167Z,71.71
2022-10-01T01:48:00.275Z,72.13
2022-10-01T01:53:04.417Z,72.22
2022-10-01T01:58:08.415Z,72.91
2022-10-01T02:03:14.041Z,73.76
2022-10-01T02:08:29.192Z,74.20
2022-10-01T02:13:43.759Z,73.26
2022-10-01T02:18:57.129Z,75.45
2022-10-01T02:24:07.992Z,73.98
2022-10-01T02:29:16.736Z,72.97
2022-10-01T02:34:29.313Z,74.11
2022-10-01T02:39:35.949Z,76.36
2022-10-01T02:44:43.239Z,77.30
2022-10-01T02:49:49.352Z,76.43
2022-10-01T02:54:58.411Z,76.52
2022-10-01T03:00:06.626Z,76.98
2022-10-01T03:05:12.097Z,76.53
2022-10-01T03:10:17.269Z,75.78
2022-10-01T03:15:21.869Z,75.09
2022-10-01T03:20:27.519Z,75.99
2022-10-01T03:25:31.510Z,75.85
2022-10-01T03:30:36.340Z,74.97
2022-10-01T03:35:42.874Z,75.51
2022-10-01T03:40:46.903Z,76.57
2022-10-01T03:45:50.939Z,77.69
2022-10-01T03:50:57.514Z,77.87
2022-10-01T03:56:02.260Z,77.51
2022-10-01T04:01:06.437Z,75.83
2022-10-01T04:06:12.183Z,75.21
2022-10-01T04:11:16.242Z,77.53
2022-10-01T04:16:20.606Z,76.35
2022-10-01T04:21:26.071Z,75.53
2022-10-01T04:26:30.119Z,75.42
2022-10-01T04:31:35.556Z,76.32
2022-10-01T04:36:41.399Z,76.70
2022-10-01T04:41:45.628Z,77.62
2022-10-01T04:46:49.667Z,77.08
2022-10-01T04:51:55.026Z,76.80
2022-10-01T04:57:01.552Z,76.13
2022-10-01T05:02:05.546Z,77.67
2022-10-01T05:07:11.148Z,76.71
2022-10-01T05:12:15.307Z,77.63
2022-10-01T05:17:19.860Z,75.98
2022-10-01T05:22:25.378Z,77.66
2022-10-01T05:27:30.360Z,75.94
2022-10-01T05:32:34.620Z,76.54
2022-10-01T05:37:41.502Z,75.40
2022-10-01T05:42:47.976Z,75.07
2022-10-01T05:47:58.770Z,73.37
2022-10-01T05:53:04.582Z,71.88
2022-10-01T05:58:10.637Z,71.60
2022-10-01T06:03:15.570Z,70.93
2022-10-01T06:08:22.799Z,69.82
2022-10-01T06:13:29.439Z,69.04
2022-10-01T06:18:33.447Z,69.38
2022-10-01T06:23:38.898Z,68.04
2022-10-01T06:28:43.380Z,65.94
2022-10-01T06:33:47.580Z,65.88
2022-10-01T06:38:52.917Z,64.69
2022-10-01T06:43:57.146Z,61.43
2022-10-01T06:49:01.258Z,57.52
2022-10-01T06:54:06.829Z,60.12
2022-10-01T06:59:11.547Z,61.28
2022-10-01T07:04:15.613Z,59.81
2022-10-01T07:09:21.158Z,58.28
2022-10-01T07:14:25.241Z,54.53
2022-10-01T07:19:29.178Z,54.57
2022-10-01T07:24:34.676Z,52.73
2022-10-01T07:29:40.481Z,49.11
2022-10-01T07:34:45.191Z,48.97
2022-10-01T07:39:50.639Z,45.73
2022-10-01T07:44:55.354Z,45.97
2022-10-01T07:49:59.340Z,46.40
2022-10-01T07:55:06.149Z,44.43
2022-10-01T08:00:11.543Z,41.55
2022-10-01T08:05:20.178Z,43.43
2022-10-01T08:10:26.590Z,44.52
2022-10-01T08:15:30.914Z,42.55
2022-10-01T08:20:35.241Z,44.95
2022-10-01T08:25:41.213Z,46.12
2022-10-01T08:30:46.636Z,48.27
2022-10-01T08:35:51.052Z,49.80
2022-10-01T08:40:56.709Z,50.60
2022-10-01T08:46:04.087Z,50.99
2022-10-01T08:51:17.129Z,50.77
2022-10-01T08:56:28.855Z,50.77
2022-10-01T09:01:33.335Z,51.64
2022-10-01T09:06:38.818Z,52.09
2022-10-01T09:17:16.849Z,57.00
2022-10-01T09:22:27.961Z,56.25
2022-10-01T09:27:33.351Z,56.16
2022-10-01T09:32:42.340Z,56.87
2022-10-01T09:37:53.038Z,57.37
2022-10-01T09:42:57.936Z,57.14
2022-10-01T09:48:14.403Z,59.84
2022-10-01T09:53:24.216Z,60.95
2022-10-01T09:58:30.640Z,62.70
2022-10-01T10:03:36.376Z,63.56
2022-10-01T10:08:41.612Z,63.87
2022-10-01T10:13:51.849Z,62.65
2022-10-01T10:19:02.819Z,64.39
2022-10-01T10:24:23.161Z,61.94
2022-10-01T10:29:30.496Z,61.45
2022-10-01T10:34:47.112Z,62.31
2022-10-01T10:39:53.987Z,66.26
2022-10-01T10:45:03.682Z,66.70
2022-10-01T10:50:29.986Z,64.78
2022-10-01T10:55:34.198Z,65.48
2022-10-01T11:00:46.503Z,68.95
2022-10-01T11:05:52.316Z,68.69
2022-10-01T11:11:09.026Z,65.79
2022-10-01T11:16:36.674Z,71.79
2022-10-01T11:21:59.366Z,72.44
2022-10-01T11:27:17.116Z,70.38
2022-10-01T11:32:34.492Z,70.34
2022-10-01T11:37:59.933Z,72.43
2022-10-01T11:43:09.985Z,70.78
2022-10-01T11:48:19.551Z,71.91
2022-10-01T11:53:32.359Z,68.56
2022-10-01T11:58:54.177Z,73.24
2022-10-01T12:04:17.522Z,74.37
2022-10-01T12:09:36.387Z,75.87
2022-10-01T12:14:47.369Z,76.01
2022-10-01T12:19:55.039Z,76.58
2022-10-01T12:25:00.571Z,75.23
2022-10-01T12:30:07.694Z,76.79
2022-10-01T12:35:29.941Z,78.38
2022-10-01T12:40:45.970Z,73.84
2022-10-01T12:45:58.386Z,73.00
2022-10-01T12:51:22.589Z,72.02
2022-10-01T12:56:35.709Z,71.53
2022-10-01T13:01:52.799Z,70.23
2022-10-01T13:07:16.299Z,70.01
2022-10-01T13:12:39.565Z,69.64
2022-10-01T13:17:50.964Z,67.34
2022-10-01T13:23:03.144Z,67.07
2022-10-01T13:28:17.640Z,66.93
2022-10-01T13:33:25.511Z,66.89
2022-10-01T13:38:43.265Z,64.74
2022-10-01T13:43:56.928Z,64.89
2022-10-01T13:49:08.437Z,64.92
2022-10-01T13:54:28.230Z,64.30
2022-10-01T13:59:37.238Z,66.56
2022-10-01T14:04:44.545Z,66.05
2022-10-01T14:09:51.955Z,64.06
2022-10-01T14:15:17.484Z,63.56
2022-10-01T14:20:24.632Z,62.30
2022-10-01T14:25:40.744Z,62.56
2022-10-01T14:30:54.652Z,62.28
2022-10-01T14:36:04.359Z,62.30
2022-10-01T14:41:21.138Z,64.67
2022-10-01T14:46:28.102Z,66.61
2022-10-01T14:51:32.331Z,66.20
2022-10-01T14:56:38.032Z,64.21
2022-10-01T15:01:43.414Z,64.56
2022-10-01T15:06:48.099Z,64.41
2022-10-01T15:11:53.048Z,65.91
2022-10-01T15:17:03.390Z,68.72
2022-10-01T15:22:08.626Z,67.87
2022-10-01T15:27:16.080Z,69.60
2022-10-01T15:32:24.986Z,68.33
2022-10-01T15:37:32.102Z,69.36
2022-10-01T15:42:37.894Z,70.90
2022-10-01T15:47:56.979Z,71.33
2022-10-01T15:53:10.183Z,72.22
2022-10-01T15:58:20.948Z,73.42
2022-10-01T16:03:32.253Z,73.11
2022-10-01T16:08:47.259Z,75.25
2022-10-01T16:13:57.030Z,74.63
2022-10-01T16:19:23.710Z,73.65
2022-10-01T16:24:29.471Z,73.60
2022-10-01T16:29:39.107Z,74.77
2022-10-01T16:34:46.964Z,75.54
2022-10-01T16:39:50.927Z,76.88
2022-10-01T16:44:54.897Z,77.84
2022-10-01T16:50:00.773Z,77.71
2022-10-01T16:55:05.893Z,79.33
2022-10-01T17:00:12.034Z,80.13
2022-10-01T17:05:22.536Z,80.07
2022-10-01T17:10:26.675Z,79.09
2022-10-01T17:15:31.035Z,79.83
2022-10-01T17:20:38.383Z,81.46
2022-10-01T17:25:43.091Z,77.46
2022-10-01T17:30:50.039Z,78.88
2022-10-01T17:35:55.901Z,76.65
2022-10-01T17:41:01.229Z,77.35
2022-10-01T17:46:05.335Z,81.42
2022-10-01T17:51:14.398Z,82.05
2022-10-01T17:56:20.411Z,82.76
2022-10-01T18:01:26.495Z,77.68
2022-10-01T18:06:32.237Z,73.33
2022-10-01T18:11:36.693Z,77.24
2022-10-01T18:16:41.170Z,75.31
2022-10-01T18:21:47.050Z,73.01
2022-10-01T18:26:51.848Z,74.85
2022-10-01T18:32:02.152Z,73.90
2022-10-01T18:37:16.112Z,72.34
2022-10-01T18:42:24.584Z,72.94
2022-10-01T18:47:39.492Z,75.30
2022-10-01T18:52:56.909Z,73.46
2022-10-01T18:58:15.112Z,73.83
2022-10-01T19:03:35.867Z,74.12
2022-10-01T19:08:52.585Z,74.36
2022-10-01T19:14:11.933Z,74.66
2022-10-01T19:19:25.886Z,72.33
2022-10-01T19:24:46.341Z,69.09
2022-10-01T19:30:08.291Z,68.98
2022-10-01T19:35:20.391Z,68.36
2022-10-01T19:40:33.536Z,66.90
2022-10-01T19:45:47.755Z,66.77
2022-10-01T19:50:57.059Z,66.29
2022-10-01T19:56:04.941Z,66.56
2022-10-01T20:01:13.976Z,66.99
2022-10-01T20:06:22.796Z,66.97
2022-10-01T20:11:31.768Z,66.75
2022-10-01T20:16:40.829Z,66.53
2022-10-01T20:21:56.503Z,65.57
2022-10-01T20:27:17.150Z,65.27
2022-10-01T20:32:27.569Z,66.01
2022-10-01T20:37:45.579Z,65.68
2022-10-01T20:42:52.531Z,66.29
2022-10-01T20:48:00.329Z,65.79
2022-10-01T20:53:24.976Z,67.83
2022-10-01T20:58:34.497Z,70.43
2022-10-01T21:03:44.460Z,71.59
2022-10-01T21:08:53.231Z,71.84
2022-10-01T21:14:07.799Z,71.26
2022-10-01T21:19:27.019Z,70.40
2022-10-01T21:24:46.703Z,71.51
2022-10-01T21:30:15.057Z,71.96
2022-10-01T21:35:32.281Z,72.50
2022-10-01T21:40:53.338Z,72.59
2022-10-01T21:46:07.927Z,72.38
2022-10-01T21:51:19.012Z,73.17
2022-10-01T21:56:42.039Z,77.16
2022-10-01T22:02:04.915Z,76.71
2022-10-01T22:07:19.064Z,79.67
2022-10-01T22:12:26.600Z,82.38
2022-10-01T22:17:36.883Z,86.37
2022-10-01T22:22:41.261Z,87.93
2022-10-01T22:27:52.876Z,87.12
2022-10-01T22:33:09.839Z,87.31
2022-10-01T22:38:20.040Z,87.98
2022-10-01T22:43:24.584Z,92.62
2022-10-01T22:48:46.188Z,94.68
2022-10-01T22:54:10.388Z,90.88
2022-10-01T22:59:22.924Z,92.54
2022-10-01T23:04:42.097Z,92.56
2022-10-01T23:09:54.091Z,93.00
2022-10-01T23:15:08.103Z,91.51
2022-10-01T23:20:23.990Z,94.52
2022-10-01T23:25:44.085Z,93.23
2022-10-01T23:31:06.459Z,93.05
2022-10-01T23:36:22.778Z,95.26
2022-10-01T23:41:34.670Z,94.37
2022-10-01T23:46:41.083Z,96.04
2022-10-01T23:51:51.031Z,95.55
2022-10-01T23:57:01.230Z,96.05
